Kezdőlap
METAR-TAF:

METAR-TAF

Repülőterek :

Rimini, Olaszország

földrajzi szélesség: 44-02N, földrajzi hosszúság: 012-37E, magasság: 12 m

Jelenlegi meteorológiai megfigyelések

A jelentés 20 perccel ezelõtt készült, 11:50 UTC
Észak-északnyugati szél 8 kt
Hőmérséklet 12°C
Páratartalom 82%
Légköri nyomás 1024 hPa
Látótávolság: 5000 m
Szórványos felhőzet 3500 lábon
Szórványos felhőzet 6000 lábon
Párásság

METAR: LIPR 181150Z 33008KT 5000 BR SCT035 SCT060 12/09 Q1024

Idő: 13:10 (12:10 UTC)

Előrejelzés

A jelentés 1 órával és 10 perccel ezelõtt készült, 11:00 UTC
Az előrejelzés 18-én 12 óra UTC és 18-én 21 óra UTC között érvényes
Nyugat-délnyugati szél 6 kt
Látótávolság: 8000 m
Szórványos felhőzet 5000 lábon

TAF: LIPR 181100Z 1812/1821 25006KT 8000 SCT050

Meteorológiai megfigyelések és előrejelzések több, mint 4000 repülőtéren (METAR és TAF jelentéseket).

A térképen piros és sárga pontok jelzik az elérhető meteorológiai állomásokat.

Mozgassa az egeret a pont fölött, hogy megjelenjen az állomás neve.

Azután kattintson az időjárási megfigyelések és előrejelzések megtekintéséhez.

A térkép megváltoztatása: kattintson a fekete keresztel jelölt zöld gombra ráközelítéshez, a vonallal jelölt zöld gombra távolításhoz, vagy a zöld nyilakra a szomszédos térképek eléréséhez.


METAR-TAF: